Time;durP1;ratioP1;P1;durP2;ratioP2;P2;SDS_P1;SDS_P2;PMS_P1;PMS_P2;Temp;Humidity;BMP_temperature;BMP_pressure;BME280_temperature;BME280_humidity;BME280_pressure;Samples;Min_cycle;Max_cycle;Signal;HPM_P1;HPM_P2
2023/05/15 00:00:11;;;;;;;8.52;5.57;;;14.50;89.40;;;;;;5039503;28;20087;-80
2023/05/15 00:02:38;;;;;;;8.70;5.20;;;14.50;89.50;;;;;;5025425;28;20025;-86
2023/05/15 00:05:08;;;;;;;9.68;5.63;;;14.50;89.50;;;;;;5014631;28;20039;-84
2023/05/15 00:07:35;;;;;;;8.30;5.68;;;14.50;89.60;;;;;;5003767;28;20037;-82
2023/05/15 00:10:01;;;;;;;8.55;5.30;;;14.40;89.60;;;;;;5039603;28;20039;-82
2023/05/15 00:12:27;;;;;;;8.32;5.28;;;14.40;89.70;;;;;;5032814;28;20043;-82
2023/05/15 00:14:53;;;;;;;8.27;5.30;;;14.40;89.70;;;;;;5016225;28;20316;-84
2023/05/15 00:17:19;;;;;;;8.77;5.18;;;14.40;89.70;;;;;;5025307;28;20505;-84
2023/05/15 00:19:45;;;;;;;7.90;5.22;;;14.30;89.70;;;;;;5032703;28;20076;-86
2023/05/15 00:22:11;;;;;;;8.10;5.40;;;14.30;89.70;;;;;;5028705;28;20047;-87
2023/05/15 00:24:36;;;;;;;10.27;5.13;;;14.30;89.70;;;;;;5006345;28;20244;-86
2023/05/15 00:27:03;;;;;;;8.43;5.15;;;14.30;89.80;;;;;;5019875;28;20116;-87
2023/05/15 00:29:29;;;;;;;8.30;5.30;;;14.20;89.80;;;;;;5046010;28;20036;-84
2023/05/15 00:31:54;;;;;;;8.30;5.25;;;14.20;89.80;;;;;;5024789;28;22466;-84
2023/05/15 00:34:21;;;;;;;7.85;5.22;;;14.20;89.80;;;;;;5037472;28;20078;-84
2023/05/15 00:36:47;;;;;;;7.97;5.07;;;14.10;89.90;;;;;;5011215;28;20021;-87
2023/05/15 00:39:13;;;;;;;8.17;5.07;;;14.10;89.90;;;;;;5024599;28;20032;-88
2023/05/15 00:41:40;;;;;;;8.55;5.53;;;14.00;89.90;;;;;;5038690;28;20405;-84
2023/05/15 00:44:08;;;;;;;8.60;5.55;;;14.00;90.00;;;;;;5030183;28;20231;-86
2023/05/15 00:46:35;;;;;;;9.07;5.60;;;13.90;90.10;;;;;;5034734;28;20082;-87
2023/05/15 00:49:04;;;;;;;8.15;5.28;;;13.90;90.00;;;;;;5021391;28;20131;-87
2023/05/15 00:51:30;;;;;;;7.90;5.17;;;13.90;90.10;;;;;;5042689;28;20025;-88
2023/05/15 00:53:57;;;;;;;8.77;5.35;;;13.80;90.00;;;;;;5006604;28;20063;-84
2023/05/15 00:56:24;;;;;;;9.05;5.53;;;13.80;90.10;;;;;;5018686;28;20108;-84
2023/05/15 00:58:52;;;;;;;10.35;5.55;;;13.80;90.20;;;;;;5032434;28;20025;-84
2023/05/15 01:01:18;;;;;;;8.47;5.57;;;13.70;90.60;;;;;;5048740;28;20048;-84
2023/05/15 01:03:45;;;;;;;9.13;5.90;;;13.70;90.30;;;;;;5024839;28;20032;-87
2023/05/15 01:06:11;;;;;;;10.00;6.03;;;13.70;90.40;;;;;;5029608;28;20055;-83
2023/05/15 01:08:45;;;;;;;11.25;6.38;;;13.70;90.40;;;;;;5026080;28;20380;-88
2023/05/15 01:11:12;;;;;;;11.57;6.22;;;13.70;90.60;;;;;;5015428;28;20030;-85
2023/05/15 01:13:39;;;;;;;10.90;6.30;;;13.70;90.60;;;;;;5028551;28;20525;-88
2023/05/15 01:16:06;;;;;;;11.63;6.57;;;13.70;90.60;;;;;;5029526;28;20490;-89
2023/05/15 01:18:32;;;;;;;11.63;6.70;;;13.60;91.00;;;;;;5021233;28;20442;-85
2023/05/15 01:21:10;;;;;;;11.43;6.05;;;13.60;90.70;;;;;;5030704;28;20033;-88
2023/05/15 01:24:12;;;;;;;10.87;6.57;;;13.60;90.70;;;;;;4997584;28;20348;-87
2023/05/15 01:26:44;;;;;;;10.32;6.32;;;13.60;91.00;;;;;;5029080;28;20040;-89
2023/05/15 01:29:29;;;;;;;11.35;6.57;;;13.60;90.80;;;;;;5019017;28;20041;-83
2023/05/15 01:32:01;;;;;;;11.35;6.07;;;13.60;91.00;;;;;;5031077;28;20028;-88
2023/05/15 01:34:37;;;;;;;11.05;6.70;;;13.60;90.90;;;;;;5022454;28;20024;-85
2023/05/15 01:37:03;;;;;;;11.47;6.57;;;13.60;90.90;;;;;;5036964;28;20016;-87
2023/05/15 01:39:32;;;;;;;10.85;6.07;;;13.60;90.90;;;;;;5004438;28;20063;-85
2023/05/15 01:42:09;;;;;;;12.18;7.07;;;13.50;90.90;;;;;;5035394;28;20017;-87
2023/05/15 01:44:45;;;;;;;12.02;6.70;;;13.50;91.00;;;;;;5029998;28;20115;-89
2023/05/15 01:47:20;;;;;;;13.18;7.18;;;13.50;91.00;;;;;;5033386;28;20017;-85
2023/05/15 01:49:49;;;;;;;12.10;7.10;;;13.50;91.10;;;;;;5024103;28;20422;-86
2023/05/15 01:52:37;;;;;;;13.52;8.27;;;13.50;91.10;;;;;;5050732;28;20079;-85
2023/05/15 01:55:06;;;;;;;12.85;7.57;;;13.50;91.40;;;;;;5011237;28;20029;-87
2023/05/15 01:57:33;;;;;;;14.90;7.82;;;13.50;91.20;;;;;;5035427;28;20021;-85
2023/05/15 02:00:00;;;;;;;14.85;7.82;;;13.50;91.20;;;;;;5036745;28;20029;-82
2023/05/15 02:02:28;;;;;;;14.10;8.07;;;13.50;91.30;;;;;;5050029;28;20439;-84
2023/05/15 02:04:55;;;;;;;16.58;8.75;;;13.50;91.40;;;;;;5041026;28;20021;-87
2023/05/15 02:07:22;;;;;;;14.07;7.85;;;13.50;91.50;;;;;;5032871;28;20025;-82
2023/05/15 02:09:51;;;;;;;13.38;7.47;;;13.50;91.50;;;;;;5009672;28;21208;-84
2023/05/15 02:12:18;;;;;;;15.95;8.98;;;13.50;91.60;;;;;;5017878;28;20079;-80
2023/05/15 02:14:47;;;;;;;14.03;7.50;;;13.50;91.60;;;;;;5032911;28;20068;-81
2023/05/15 02:17:13;;;;;;;15.55;8.25;;;13.50;91.70;;;;;;5067495;28;20562;-79
2023/05/15 02:19:39;;;;;;;16.45;8.40;;;13.50;91.70;;;;;;5038779;28;20040;-84
2023/05/15 02:22:04;;;;;;;14.83;8.07;;;13.60;91.80;;;;;;5018889;28;20027;-84
2023/05/15 02:24:30;;;;;;;13.90;7.95;;;13.60;91.80;;;;;;5003597;28;20041;-85
2023/05/15 02:27:00;;;;;;;15.05;8.13;;;13.60;91.80;;;;;;5035779;28;20025;-84
2023/05/15 02:30:02;;;;;;;14.47;7.87;;;13.50;91.90;;;;;;5015673;28;20440;-81
2023/05/15 02:32:55;;;;;;;14.68;7.80;;;13.60;92.10;;;;;;5030638;28;20398;-82
2023/05/15 02:35:32;;;;;;;16.60;8.52;;;13.60;92.10;;;;;;5030256;28;20025;-80
2023/05/15 02:38:01;;;;;;;15.95;7.60;;;13.60;92.20;;;;;;5015176;28;20425;-87
2023/05/15 02:40:29;;;;;;;15.55;7.82;;;13.60;91.90;;;;;;5019692;28;20127;-84
2023/05/15 02:42:56;;;;;;;15.57;8.23;;;13.60;91.90;;;;;;5056878;28;20025;-79
2023/05/15 02:45:23;;;;;;;14.73;7.63;;;13.60;91.90;;;;;;5040756;28;20397;-84
2023/05/15 02:47:51;;;;;;;14.70;8.05;;;13.60;91.80;;;;;;5040526;28;20032;-80
2023/05/15 02:50:17;;;;;;;15.25;8.40;;;13.70;91.90;;;;;;5037168;28;22007;-82
2023/05/15 02:52:43;;;;;;;15.50;8.23;;;13.60;91.80;;;;;;5029012;28;20491;-81
2023/05/15 02:55:09;;;;;;;15.40;7.53;;;13.60;91.80;;;;;;4998556;28;20241;-82
2023/05/15 02:57:35;;;;;;;15.68;7.65;;;13.60;91.80;;;;;;5036807;28;20487;-84
2023/05/15 03:00:01;;;;;;;15.60;8.10;;;13.50;91.80;;;;;;5037004;28;20211;-87
2023/05/15 03:02:27;;;;;;;15.27;8.30;;;13.50;91.90;;;;;;5032446;28;20037;-85
2023/05/15 03:04:53;;;;;;;15.90;8.03;;;13.60;92.00;;;;;;5037185;28;20281;-88
2023/05/15 03:07:19;;;;;;;14.50;7.63;;;13.50;92.00;;;;;;5030794;28;20028;-82
2023/05/15 03:09:44;;;;;;;15.87;7.93;;;13.60;91.90;;;;;;5012757;28;20104;-82
2023/05/15 03:12:10;;;;;;;15.48;7.70;;;13.50;91.90;;;;;;5032077;28;20021;-84
2023/05/15 03:14:36;;;;;;;16.02;8.02;;;13.50;91.90;;;;;;5034389;28;20025;-84
2023/05/15 03:17:02;;;;;;;15.80;8.15;;;13.50;91.90;;;;;;5031572;28;20345;-88
2023/05/15 03:19:28;;;;;;;15.20;7.93;;;13.50;92.00;;;;;;5036152;28;20025;-84
2023/05/15 03:21:54;;;;;;;15.52;8.27;;;13.50;92.00;;;;;;5024856;28;22711;-86
2023/05/15 03:24:20;;;;;;;14.73;7.40;;;13.50;92.10;;;;;;5034415;28;20106;-86
2023/05/15 03:26:46;;;;;;;15.57;7.70;;;13.50;92.10;;;;;;5009735;28;20071;-84
2023/05/15 03:29:12;;;;;;;15.30;7.65;;;13.50;92.20;;;;;;5052685;28;20028;-78
2023/05/15 03:31:38;;;;;;;15.20;8.27;;;13.50;92.20;;;;;;5034201;28;20025;-83
2023/05/15 03:34:04;;;;;;;18.60;8.63;;;13.50;92.20;;;;;;5031930;28;21107;-83
2023/05/15 03:36:30;;;;;;;19.38;9.48;;;13.50;92.20;;;;;;5039338;28;20037;-80
2023/05/15 03:38:56;;;;;;;19.38;9.32;;;13.50;92.20;;;;;;5025437;28;20221;-83
2023/05/15 03:41:21;;;;;;;19.53;9.07;;;13.50;92.20;;;;;;5028147;28;20475;-85
2023/05/15 03:43:47;;;;;;;19.33;9.25;;;13.50;92.20;;;;;;5052222;28;20482;-82
2023/05/15 03:46:13;;;;;;;19.23;9.23;;;13.50;92.30;;;;;;5052890;28;20541;-87
2023/05/15 03:48:39;;;;;;;21.05;10.00;;;13.50;92.30;;;;;;5033044;28;20017;-82
2023/05/15 03:51:05;;;;;;;20.65;9.77;;;13.50;92.30;;;;;;5051094;28;20072;-87
2023/05/15 03:53:31;;;;;;;18.50;8.57;;;13.40;92.30;;;;;;5037542;28;20045;-85
2023/05/15 03:55:57;;;;;;;19.02;9.10;;;13.40;92.40;;;;;;4999470;28;21669;-88
2023/05/15 03:58:22;;;;;;;19.50;9.73;;;13.40;92.50;;;;;;5040601;28;20033;-87
2023/05/15 04:00:48;;;;;;;18.48;8.93;;;13.40;92.50;;;;;;5035235;28;20545;-81
2023/05/15 04:03:14;;;;;;;19.40;9.27;;;13.50;92.60;;;;;;5026960;28;20130;-86
2023/05/15 04:05:40;;;;;;;22.83;10.03;;;13.50;92.60;;;;;;5035637;28;20040;-82
2023/05/15 04:08:06;;;;;;;19.40;9.27;;;13.50;92.60;;;;;;5036883;28;20067;-83
2023/05/15 04:10:32;;;;;;;19.40;9.18;;;13.50;92.60;;;;;;5025323;28;20032;-88
2023/05/15 04:12:58;;;;;;;19.52;9.73;;;13.50;92.60;;;;;;5009069;28;20032;-83
2023/05/15 04:15:28;;;;;;;17.97;9.00;;;13.50;92.60;;;;;;5036064;28;20277;-88
2023/05/15 04:17:53;;;;;;;18.25;9.15;;;13.50;92.60;;;;;;5051644;28;20034;-83
2023/05/15 04:20:21;;;;;;;19.25;9.27;;;13.50;92.60;;;;;;5033156;28;20279;-85
2023/05/15 04:22:48;;;;;;;19.23;9.73;;;13.50;92.70;;;;;;5035765;28;20025;-88
2023/05/15 04:25:15;;;;;;;17.58;9.30;;;13.50;92.70;;;;;;5037643;28;20036;-85
2023/05/15 04:27:41;;;;;;;18.48;9.80;;;13.50;92.70;;;;;;5006531;28;20129;-89
2023/05/15 04:30:08;;;;;;;16.42;9.07;;;13.50;92.70;;;;;;5031328;28;20032;-83
2023/05/15 04:32:37;;;;;;;18.83;9.93;;;13.60;92.80;;;;;;5038687;28;20083;-85
2023/05/15 04:35:08;;;;;;;18.20;9.17;;;13.60;92.90;;;;;;5029457;28;20021;-82
2023/05/15 04:37:35;;;;;;;17.85;9.55;;;13.60;92.90;;;;;;5033295;28;20360;-84
2023/05/15 04:40:01;;;;;;;18.45;9.55;;;13.60;92.90;;;;;;5025991;28;20064;-82
2023/05/15 04:42:27;;;;;;;15.10;8.60;;;13.60;92.90;;;;;;5008865;28;21204;-80
2023/05/15 04:44:53;;;;;;;15.85;8.68;;;13.70;92.90;;;;;;5024768;28;20090;-80
2023/05/15 04:47:19;;;;;;;16.97;8.70;;;13.70;92.90;;;;;;5033235;28;20025;-82
2023/05/15 04:49:46;;;;;;;16.58;8.55;;;13.70;92.90;;;;;;5037321;28;20033;-82
2023/05/15 04:52:12;;;;;;;15.70;8.60;;;13.70;92.90;;;;;;5041118;28;20500;-84
2023/05/15 04:54:38;;;;;;;15.37;8.67;;;13.70;92.90;;;;;;5028481;28;20032;-83
2023/05/15 04:57:05;;;;;;;16.38;9.27;;;13.70;92.90;;;;;;5049983;28;20037;-83
2023/05/15 04:59:31;;;;;;;17.60;8.75;;;13.70;92.90;;;;;;5009201;28;20565;-79
2023/05/15 05:01:56;;;;;;;17.80;8.77;;;13.70;92.90;;;;;;5006519;28;20029;-80
2023/05/15 05:04:22;;;;;;;16.73;8.77;;;13.70;93.00;;;;;;5034116;28;20112;-82
2023/05/15 05:06:48;;;;;;;16.07;8.93;;;13.70;93.10;;;;;;5006589;28;20116;-79
2023/05/15 05:09:14;;;;;;;19.50;10.10;;;13.70;93.10;;;;;;5032675;28;20029;-85
2023/05/15 05:11:43;;;;;;;18.92;9.68;;;13.70;93.20;;;;;;5020445;28;20017;-80
2023/05/15 05:14:15;;;;;;;19.08;9.43;;;13.80;93.30;;;;;;5006937;28;20033;-78
2023/05/15 05:16:44;;;;;;;19.30;9.93;;;13.80;93.30;;;;;;5050113;28;20560;-81
2023/05/15 05:19:10;;;;;;;19.77;9.50;;;13.90;93.40;;;;;;5045510;28;20030;-78
2023/05/15 05:21:36;;;;;;;21.48;10.95;;;13.90;93.40;;;;;;5019014;28;20020;-84
2023/05/15 05:24:02;;;;;;;22.15;10.48;;;13.90;93.40;;;;;;5017466;28;20205;-79
2023/05/15 05:26:28;;;;;;;19.80;9.60;;;14.00;93.30;;;;;;5023665;28;20037;-86
2023/05/15 05:28:54;;;;;;;21.75;10.48;;;14.00;93.30;;;;;;5000547;28;20057;-80
2023/05/15 05:31:20;;;;;;;20.42;10.48;;;14.00;93.40;;;;;;5025193;28;20057;-82
2023/05/15 05:33:48;;;;;;;21.08;10.45;;;14.00;93.40;;;;;;5033945;28;20021;-80
2023/05/15 05:36:14;;;;;;;18.77;9.50;;;14.00;93.30;;;;;;5035040;28;20230;-80
2023/05/15 05:38:41;;;;;;;21.27;9.95;;;14.10;93.30;;;;;;5001475;28;20032;-82
2023/05/15 05:41:07;;;;;;;17.90;9.30;;;14.10;93.20;;;;;;5023317;28;20017;-81
2023/05/15 05:43:32;;;;;;;19.13;9.45;;;14.10;93.20;;;;;;5034885;28;20021;-80
2023/05/15 05:45:59;;;;;;;21.40;9.88;;;14.10;93.20;;;;;;5003572;28;20605;-79
2023/05/15 05:48:25;;;;;;;18.00;9.37;;;14.10;93.20;;;;;;5031077;28;20686;-81
2023/05/15 05:50:51;;;;;;;21.35;9.93;;;14.10;93.20;;;;;;5026591;28;20098;-81
2023/05/15 05:53:17;;;;;;;20.08;9.55;;;14.10;93.20;;;;;;4995170;28;20068;-81
2023/05/15 05:55:43;;;;;;;20.47;10.23;;;14.00;93.20;;;;;;5033406;28;20666;-80
2023/05/15 05:58:09;;;;;;;19.60;9.88;;;14.00;93.30;;;;;;5023203;28;20337;-79
2023/05/15 06:00:35;;;;;;;22.10;10.07;;;14.00;93.40;;;;;;5017674;28;20029;-79
2023/05/15 06:03:01;;;;;;;21.75;10.35;;;14.00;93.40;;;;;;5005002;28;20029;-81
2023/05/15 06:05:27;;;;;;;23.73;10.47;;;14.10;93.50;;;;;;5020384;28;20155;-79
2023/05/15 06:07:54;;;;;;;21.42;10.07;;;14.10;93.50;;;;;;5002036;28;20482;-83
2023/05/15 06:10:20;;;;;;;23.48;11.23;;;14.10;93.50;;;;;;5007760;28;20394;-84
2023/05/15 06:12:46;;;;;;;21.58;10.25;;;14.20;93.60;;;;;;5011004;28;20473;-80
2023/05/15 06:15:12;;;;;;;22.13;10.10;;;14.20;94.00;;;;;;5028613;28;20281;-85
2023/05/15 06:17:38;;;;;;;21.85;10.80;;;14.30;93.80;;;;;;5006914;28;20021;-85
2023/05/15 06:20:08;;;;;;;21.65;10.80;;;14.30;93.90;;;;;;5021973;28;20041;-79
2023/05/15 06:22:38;;;;;;;21.58;10.18;;;14.40;93.90;;;;;;5028897;28;20127;-83
2023/05/15 06:25:04;;;;;;;24.47;11.73;;;14.50;93.90;;;;;;5010688;28;20043;-78
2023/05/15 06:27:31;;;;;;;23.55;11.73;;;14.60;94.00;;;;;;5013166;28;20095;-81
2023/05/15 06:29:56;;;;;;;22.70;11.48;;;14.60;94.00;;;;;;5043846;28;20079;-80
2023/05/15 06:32:23;;;;;;;21.50;10.63;;;14.70;94.10;;;;;;4993190;28;20079;-81
2023/05/15 06:34:49;;;;;;;23.10;11.40;;;14.80;94.10;;;;;;5028218;28;20028;-83
2023/05/15 06:37:15;;;;;;;23.00;10.38;;;14.80;94.00;;;;;;5033074;28;20036;-80
2023/05/15 06:39:41;;;;;;;24.40;11.65;;;14.90;94.00;;;;;;5029636;28;20025;-80
2023/05/15 06:42:07;;;;;;;23.23;11.05;;;15.00;94.00;;;;;;5007521;28;20087;-83
2023/05/15 06:44:33;;;;;;;24.30;11.50;;;15.00;94.00;;;;;;5022003;28;20229;-83
2023/05/15 06:46:59;;;;;;;23.50;11.30;;;15.10;94.10;;;;;;4987713;28;20119;-82
2023/05/15 06:49:25;;;;;;;24.48;12.30;;;15.20;94.20;;;;;;5005096;28;20974;-86
2023/05/15 06:51:51;;;;;;;24.02;11.50;;;15.30;94.30;;;;;;5027497;28;20025;-84
2023/05/15 06:54:17;;;;;;;23.63;11.33;;;15.30;94.30;;;;;;5001985;28;20467;-86
2023/05/15 06:56:43;;;;;;;26.10;12.00;;;15.40;94.30;;;;;;5012682;28;20017;-81
2023/05/15 06:59:09;;;;;;;24.77;11.68;;;15.50;94.30;;;;;;5016666;28;20278;-87
2023/05/15 07:01:35;;;;;;;24.17;12.07;;;15.60;94.30;;;;;;5042756;28;20508;-82
2023/05/15 07:04:01;;;;;;;24.83;12.60;;;15.70;94.30;;;;;;4997043;28;20564;-81
2023/05/15 07:06:27;;;;;;;23.90;12.75;;;15.80;94.50;;;;;;5033922;28;20029;-85
2023/05/15 07:08:53;;;;;;;22.70;10.97;;;15.90;94.50;;;;;;5039484;28;20226;-86
2023/05/15 07:11:19;;;;;;;23.98;11.45;;;16.00;94.60;;;;;;5031613;28;20048;-85
2023/05/15 07:13:45;;;;;;;26.92;12.60;;;16.10;94.70;;;;;;5014122;28;20025;-82
2023/05/15 07:16:11;;;;;;;26.00;12.53;;;16.20;94.70;;;;;;5027899;28;20024;-79
2023/05/15 07:18:37;;;;;;;25.17;12.38;;;16.30;94.50;;;;;;5005637;28;20033;-88
2023/05/15 07:21:03;;;;;;;24.33;12.30;;;16.40;94.30;;;;;;5022916;28;20029;-83
2023/05/15 07:23:28;;;;;;;22.00;10.67;;;16.50;94.20;;;;;;5026684;28;20033;-81
2023/05/15 07:25:55;;;;;;;23.40;11.80;;;16.50;94.20;;;;;;5032395;28;20063;-84
2023/05/15 07:28:21;;;;;;;24.73;11.88;;;16.50;94.00;;;;;;5027956;28;20052;-79
2023/05/15 07:30:47;;;;;;;23.42;11.93;;;16.60;93.70;;;;;;5027618;28;20041;-80
2023/05/15 07:33:13;;;;;;;25.07;11.77;;;16.60;93.60;;;;;;5022844;28;20247;-80
2023/05/15 07:35:39;;;;;;;24.35;11.35;;;16.60;93.80;;;;;;5032762;28;20086;-87
2023/05/15 07:38:05;;;;;;;23.77;11.48;;;16.60;94.00;;;;;;5035848;28;20035;-82
2023/05/15 07:40:31;;;;;;;21.73;11.17;;;16.70;94.20;;;;;;5008803;28;20025;-86
2023/05/15 07:42:57;;;;;;;23.08;11.40;;;16.70;94.20;;;;;;5039692;28;20061;-80
2023/05/15 07:45:23;;;;;;;24.13;11.95;;;16.80;94.00;;;;;;5029516;28;20686;-83
2023/05/15 07:47:50;;;;;;;25.20;11.73;;;16.90;93.90;;;;;;5032668;28;20024;-83
2023/05/15 07:50:16;;;;;;;25.40;12.25;;;16.90;93.70;;;;;;5014897;28;20380;-87
2023/05/15 07:52:43;;;;;;;24.13;12.13;;;16.90;93.50;;;;;;5033781;28;20119;-87
2023/05/15 07:55:09;;;;;;;24.40;11.60;;;16.90;93.50;;;;;;5038002;28;20484;-85
2023/05/15 07:57:36;;;;;;;25.63;11.68;;;16.90;93.50;;;;;;5023774;28;20504;-88
2023/05/15 08:00:08;;;;;;;23.65;11.85;;;16.90;93.50;;;;;;5012984;28;20489;-83
2023/05/15 08:02:35;;;;;;;26.65;11.60;;;16.90;93.50;;;;;;5054999;28;20688;-86
2023/05/15 08:05:00;;;;;;;26.00;11.93;;;16.90;93.50;;;;;;4984842;28;20497;-85
2023/05/15 08:07:26;;;;;;;26.83;11.95;;;16.90;93.40;;;;;;5044687;28;20184;-83
2023/05/15 08:09:52;;;;;;;26.60;12.45;;;17.00;93.40;;;;;;5029409;28;20097;-84
2023/05/15 08:12:21;;;;;;;25.90;12.20;;;17.00;93.40;;;;;;5021314;28;20027;-82
2023/05/15 08:14:52;;;;;;;27.80;12.30;;;17.00;93.10;;;;;;5055120;28;20503;-82
2023/05/15 08:17:19;;;;;;;25.33;11.95;;;17.00;93.10;;;;;;5030862;28;20025;-84
2023/05/15 08:19:45;;;;;;;25.90;11.88;;;17.00;93.30;;;;;;5041558;28;20043;-87
2023/05/15 08:22:11;;;;;;;26.23;12.80;;;17.00;93.30;;;;;;4998634;28;20028;-86
2023/05/15 08:24:38;;;;;;;26.50;11.63;;;17.00;93.30;;;;;;5041443;28;20057;-80
2023/05/15 08:27:05;;;;;;;26.50;11.82;;;17.10;93.50;;;;;;4997671;28;20037;-82
2023/05/15 08:29:31;;;;;;;29.10;13.60;;;17.10;93.80;;;;;;5035355;28;20036;-84
2023/05/15 08:31:57;;;;;;;30.75;13.27;;;17.20;93.60;;;;;;5028255;28;20029;-83
2023/05/15 08:34:24;;;;;;;27.27;12.45;;;17.30;93.40;;;;;;5034027;28;20058;-79
2023/05/15 08:36:51;;;;;;;26.80;12.40;;;17.30;93.40;;;;;;5015082;28;20035;-81
2023/05/15 08:39:17;;;;;;;26.20;12.50;;;17.40;93.40;;;;;;5054797;28;20321;-82
2023/05/15 08:42:04;;;;;;;25.38;11.85;;;17.40;93.40;;;;;;5034849;28;20037;-85
2023/05/15 08:44:31;;;;;;;24.33;11.63;;;17.50;93.00;;;;;;5026269;28;20040;-79
2023/05/15 08:46:57;;;;;;;25.03;12.13;;;17.60;93.90;;;;;;5033114;28;20029;-82
2023/05/15 08:49:46;;;;;;;25.85;12.45;;;17.80;93.80;;;;;;5033203;28;20024;-83
2023/05/15 08:52:12;;;;;;;26.50;11.68;;;17.90;93.80;;;;;;4995729;28;20708;-81
2023/05/15 08:54:39;;;;;;;25.38;11.88;;;18.00;93.80;;;;;;5042147;28;20024;-85
2023/05/15 08:57:06;;;;;;;27.15;12.73;;;18.10;93.50;;;;;;5013677;28;20045;-84
2023/05/15 08:59:32;;;;;;;29.17;12.80;;;18.20;93.40;;;;;;5019991;28;20036;-78
2023/05/15 09:01:59;;;;;;;24.13;11.85;;;18.20;93.20;;;;;;5010554;28;20041;-83
2023/05/15 09:04:25;;;;;;;28.67;13.00;;;18.30;92.90;;;;;;5023068;28;20064;-80
2023/05/15 09:06:51;;;;;;;26.70;13.33;;;18.30;92.70;;;;;;5012331;28;20537;-81
2023/05/15 09:09:18;;;;;;;29.17;12.88;;;18.20;92.60;;;;;;5024219;28;20345;-81
2023/05/15 09:11:47;;;;;;;28.10;12.93;;;18.20;92.90;;;;;;5036328;28;20017;-87
2023/05/15 09:14:12;;;;;;;27.60;12.95;;;18.30;92.90;;;;;;5030858;28;20578;-79
2023/05/15 09:16:38;;;;;;;27.02;13.10;;;18.30;93.10;;;;;;5019279;28;20037;-78
2023/05/15 09:19:06;;;;;;;25.70;12.30;;;18.40;93.20;;;;;;5007131;28;20714;-79
2023/05/15 09:21:33;;;;;;;28.83;13.57;;;18.40;93.20;;;;;;5009297;28;20013;-79
2023/05/15 09:24:18;;;;;;;25.48;12.57;;;18.50;93.20;;;;;;5028672;28;20029;-83
2023/05/15 09:27:03;;;;;;;25.98;12.68;;;18.60;92.20;;;;;;5036159;28;20019;-83
2023/05/15 09:29:35;;;;;;;26.97;13.23;;;18.80;92.30;;;;;;5013467;28;20566;-84
2023/05/15 09:32:03;;;;;;;28.42;14.23;;;18.80;92.60;;;;;;5003558;28;20063;-80
2023/05/15 09:34:30;;;;;;;28.30;13.82;;;18.90;92.70;;;;;;5039269;28;20501;-79
2023/05/15 09:36:57;;;;;;;27.00;12.70;;;18.90;92.80;;;;;;5022249;28;20650;-83
2023/05/15 09:39:22;;;;;;;25.10;12.88;;;19.00;92.80;;;;;;5012539;28;20578;-80
2023/05/15 09:41:48;;;;;;;28.43;12.87;;;19.00;92.80;;;;;;5037186;28;20290;-81
2023/05/15 09:44:27;;;;;;;25.48;12.35;;;19.10;92.90;;;;;;5031207;28;20049;-80
2023/05/15 09:46:52;;;;;;;25.33;12.57;;;19.10;92.60;;;;;;5014341;28;20621;-82
2023/05/15 09:49:19;;;;;;;24.92;12.50;;;19.30;93.20;;;;;;5024556;28;20055;-82
2023/05/15 09:51:47;;;;;;;23.50;11.80;;;19.40;93.20;;;;;;5005056;28;20025;-86
2023/05/15 09:54:17;;;;;;;26.50;12.10;;;19.50;93.60;;;;;;5010677;28;20083;-81
2023/05/15 09:56:44;;;;;;;24.50;11.75;;;19.70;93.80;;;;;;5036622;28;20100;-80
2023/05/15 09:59:15;;;;;;;24.20;12.50;;;20.00;93.60;;;;;;5027809;28;20063;-78
2023/05/15 10:01:45;;;;;;;25.50;12.45;;;20.10;92.80;;;;;;5032402;28;20642;-78
2023/05/15 10:04:12;;;;;;;23.15;12.18;;;20.30;92.40;;;;;;5038358;28;20016;-78
2023/05/15 10:06:40;;;;;;;23.60;12.02;;;20.40;92.70;;;;;;4989884;28;20033;-81
2023/05/15 10:09:07;;;;;;;23.15;12.32;;;20.60;92.70;;;;;;5035468;28;20056;-79
2023/05/15 10:11:38;;;;;;;23.63;11.73;;;20.70;92.80;;;;;;5026379;28;20041;-81
2023/05/15 10:14:08;;;;;;;22.60;11.82;;;20.80;91.90;;;;;;5026850;28;20226;-81
2023/05/15 10:16:36;;;;;;;24.38;12.35;;;20.80;91.80;;;;;;5035888;28;20020;-82
2023/05/15 10:19:09;;;;;;;24.63;12.65;;;20.90;91.80;;;;;;5013803;28;20095;-85
2023/05/15 10:21:40;;;;;;;25.77;13.20;;;20.90;90.90;;;;;;5020893;28;20033;-80
2023/05/15 10:24:07;;;;;;;23.87;12.30;;;20.90;90.70;;;;;;5010082;28;20044;-77
2023/05/15 10:26:40;;;;;;;23.58;11.93;;;20.80;91.10;;;;;;5025924;28;20033;-81
2023/05/15 10:29:08;;;;;;;24.90;12.85;;;20.80;90.40;;;;;;5036410;28;20237;-79
2023/05/15 10:31:35;;;;;;;24.70;12.40;;;20.70;90.60;;;;;;5016835;28;20395;-84
2023/05/15 10:34:04;;;;;;;26.25;12.40;;;20.60;90.70;;;;;;5012579;28;20109;-80
2023/05/15 10:36:31;;;;;;;27.37;12.50;;;20.50;90.60;;;;;;5024415;28;20047;-76
2023/05/15 10:38:59;;;;;;;28.20;12.82;;;20.30;90.40;;;;;;5003174;28;20026;-79
2023/05/15 10:41:27;;;;;;;30.05;14.10;;;20.20;90.20;;;;;;5025866;28;20021;-79
2023/05/15 10:43:54;;;;;;;30.80;13.73;;;20.10;90.30;;;;;;5032582;28;20056;-80
2023/05/15 10:46:20;;;;;;;29.35;13.77;;;20.00;90.50;;;;;;5030059;28;20458;-83
2023/05/15 10:48:47;;;;;;;28.37;12.60;;;20.00;90.40;;;;;;5020837;28;20134;-79
2023/05/15 10:51:17;;;;;;;31.02;13.85;;;19.90;90.40;;;;;;5021685;28;20107;-78
2023/05/15 10:53:46;;;;;;;33.13;13.68;;;19.70;90.10;;;;;;5006760;28;20510;-80
2023/05/15 10:56:16;;;;;;;27.70;12.85;;;19.70;90.50;;;;;;5045619;28;20040;-80
2023/05/15 10:58:49;;;;;;;29.95;12.77;;;19.60;90.40;;;;;;5034395;28;20433;-80
2023/05/15 11:01:30;;;;;;;29.23;13.53;;;19.60;90.20;;;;;;5025586;28;20079;-82
2023/05/15 11:04:11;;;;;;;29.98;13.45;;;19.50;90.00;;;;;;5033329;28;20407;-80
2023/05/15 11:06:39;;;;;;;30.70;13.63;;;19.50;90.00;;;;;;5038226;28;20028;-81
2023/05/15 11:09:20;;;;;;;32.20;14.80;;;19.40;90.50;;;;;;4998836;28;20029;-80
2023/05/15 11:11:56;;;;;;;35.20;15.18;;;19.30;89.90;;;;;;5030589;28;20128;-84
2023/05/15 11:14:25;;;;;;;37.43;15.30;;;19.30;90.00;;;;;;5060713;28;20033;-80
2023/05/15 11:16:56;;;;;;;35.17;14.77;;;19.20;90.20;;;;;;5063146;28;20024;-79
2023/05/15 11:19:32;;;;;;;32.95;15.20;;;19.20;90.60;;;;;;5021965;28;20146;-80
2023/05/15 11:21:57;;;;;;;33.70;15.00;;;19.10;90.50;;;;;;5035269;28;20025;-79
2023/05/15 11:24:31;;;;;;;35.73;15.63;;;19.00;90.50;;;;;;4983811;28;20068;-78
2023/05/15 11:27:04;;;;;;;34.55;15.27;;;18.90;90.10;;;;;;5036242;28;20037;-82
2023/05/15 11:29:31;;;;;;;34.55;14.73;;;18.90;90.30;;;;;;5041958;28;20028;-81
2023/05/15 11:31:57;;;;;;;34.72;15.13;;;18.80;90.60;;;;;;5033841;28;20094;-79
2023/05/15 11:34:30;;;;;;;35.70;15.15;;;18.80;90.60;;;;;;5022011;28;20441;-79
2023/05/15 11:36:58;;;;;;;33.80;13.97;;;18.70;90.30;;;;;;5034682;28;20091;-80
2023/05/15 11:39:24;;;;;;;35.83;15.20;;;18.60;90.60;;;;;;4997444;28;20433;-81
2023/05/15 11:41:51;;;;;;;37.50;15.32;;;18.60;90.60;;;;;;5036364;28;20490;-80
2023/05/15 11:44:21;;;;;;;35.08;14.90;;;18.50;90.60;;;;;;5008901;28;20486;-85
2023/05/15 11:46:49;;;;;;;36.45;14.60;;;18.50;90.50;;;;;;5049919;28;20839;-82
2023/05/15 11:49:17;;;;;;;37.53;14.80;;;18.40;90.60;;;;;;5020357;28;20366;-84
2023/05/15 11:51:43;;;;;;;40.20;15.40;;;18.30;90.70;;;;;;5038609;28;20096;-80
2023/05/15 11:54:13;;;;;;;45.13;17.50;;;18.30;90.80;;;;;;5007131;28;20051;-79
2023/05/15 11:56:43;;;;;;;47.22;17.23;;;18.20;90.70;;;;;;5040928;28;20564;-80
2023/05/15 11:59:15;;;;;;;45.03;16.67;;;18.20;90.60;;;;;;5038798;28;20510;-81
2023/05/15 12:01:42;;;;;;;49.17;17.48;;;18.10;90.70;;;;;;5040309;28;20124;-79
2023/05/15 12:04:15;;;;;;;40.95;16.15;;;18.00;90.80;;;;;;5016173;28;20045;-86
2023/05/15 12:06:43;;;;;;;43.10;15.93;;;18.00;90.80;;;;;;5035392;28;20080;-81
2023/05/15 12:09:15;;;;;;;40.90;15.07;;;18.00;91.00;;;;;;5026953;28;20047;-78
2023/05/15 12:11:48;;;;;;;44.83;16.57;;;17.90;90.90;;;;;;5010119;28;20025;-80
2023/05/15 12:14:13;;;;;;;47.92;17.27;;;17.80;90.80;;;;;;5038051;28;20029;-85
2023/05/15 12:16:39;;;;;;;40.95;16.05;;;17.80;90.90;;;;;;5019489;28;20021;-81
2023/05/15 12:19:05;;;;;;;40.83;15.00;;;17.80;91.10;;;;;;5034370;28;20094;-81
2023/05/15 12:21:31;;;;;;;45.63;17.08;;;17.70;91.30;;;;;;5018165;28;20066;-81
2023/05/15 12:23:57;;;;;;;38.53;14.55;;;17.70;91.20;;;;;;5036196;28;20256;-77
2023/05/15 12:26:25;;;;;;;42.57;16.07;;;17.70;91.30;;;;;;5005883;28;20057;-79
2023/05/15 12:28:53;;;;;;;41.17;16.17;;;17.70;91.40;;;;;;5017070;28;20399;-79
2023/05/15 12:31:19;;;;;;;41.90;15.82;;;17.70;91.50;;;;;;5028972;28;20375;-78
2023/05/15 12:33:45;;;;;;;43.40;15.73;;;17.70;91.50;;;;;;5036263;28;20017;-79
2023/05/15 12:36:11;;;;;;;41.83;16.35;;;17.70;91.70;;;;;;5003691;28;20035;-82